Time;durP1;ratioP1;P1;durP2;ratioP2;P2;SDS_P1;SDS_P2;PMS_P1;PMS_P2;Temp;Humidity;BMP_temperature;BMP_pressure;BME280_temperature;BME280_humidity;BME280_pressure;Samples;Min_cycle;Max_cycle;Signal;HPM_P1;HPM_P2
2022/03/18 00:02:11;;;;;;;9.30;6.88;;;10.10;99.90;;;;;;5095978;28;20530;-79
2022/03/18 00:04:38;;;;;;;12.93;7.47;;;10.10;99.90;;;;;;5097317;28;20027;-76
2022/03/18 00:07:04;;;;;;;11.68;7.60;;;10.10;99.90;;;;;;5097330;28;20024;-78
2022/03/18 00:09:30;;;;;;;10.48;8.20;;;10.10;99.90;;;;;;5097378;28;20047;-78
2022/03/18 00:11:57;;;;;;;10.23;7.70;;;10.10;99.90;;;;;;5095919;28;20016;-78
2022/03/18 00:14:23;;;;;;;12.50;8.82;;;10.00;99.90;;;;;;5095917;28;20020;-78
2022/03/18 00:16:49;;;;;;;12.85;7.95;;;10.00;99.90;;;;;;5097410;28;20027;-79
2022/03/18 00:19:15;;;;;;;17.60;8.55;;;10.00;99.90;;;;;;5095904;28;20111;-78
2022/03/18 00:21:41;;;;;;;8.82;7.20;;;10.00;99.90;;;;;;5097254;28;20063;-78
2022/03/18 00:24:07;;;;;;;16.05;7.63;;;10.00;99.90;;;;;;5097072;28;20052;-78
2022/03/18 00:26:33;;;;;;;12.10;8.23;;;10.00;99.90;;;;;;5095882;28;20024;-78
2022/03/18 00:28:59;;;;;;;13.13;8.15;;;10.00;99.90;;;;;;5097255;28;20021;-78
2022/03/18 00:31:25;;;;;;;10.35;7.93;;;10.00;99.90;;;;;;5095880;28;20043;-78
2022/03/18 00:33:51;;;;;;;13.77;8.88;;;9.90;99.90;;;;;;5095828;28;20026;-78
2022/03/18 00:36:17;;;;;;;13.38;8.50;;;10.00;99.90;;;;;;5095833;28;20029;-78
2022/03/18 00:38:43;;;;;;;15.15;8.30;;;9.90;99.90;;;;;;5097150;28;20459;-78
2022/03/18 00:41:09;;;;;;;11.00;8.00;;;9.90;99.90;;;;;;5095678;28;20110;-78
2022/03/18 00:43:35;;;;;;;14.30;7.47;;;9.90;99.90;;;;;;5095643;28;20028;-78
2022/03/18 00:46:01;;;;;;;13.23;8.02;;;9.90;99.90;;;;;;5096854;28;20031;-78
2022/03/18 00:53:55;;;;;;;13.63;8.18;;;9.80;99.90;;;;;;5096133;28;20032;-78
2022/03/18 00:56:21;;;;;;;12.80;7.57;;;9.80;99.90;;;;;;5095645;28;20024;-78
2022/03/18 00:58:47;;;;;;;13.70;8.95;;;9.70;99.90;;;;;;5095644;28;20059;-78
2022/03/18 01:01:13;;;;;;;9.35;8.32;;;9.70;99.90;;;;;;5096834;28;20618;-78
2022/03/18 01:03:39;;;;;;;12.52;8.23;;;9.70;99.90;;;;;;5097084;28;20492;-78
2022/03/18 01:06:04;;;;;;;13.77;8.18;;;9.70;99.90;;;;;;5095865;28;20038;-78
2022/03/18 01:08:31;;;;;;;11.38;8.43;;;9.70;99.90;;;;;;5099972;28;20084;-79
2022/03/18 01:10:57;;;;;;;10.27;8.25;;;9.70;99.90;;;;;;5099784;28;20101;-79
2022/03/18 01:13:23;;;;;;;14.45;9.27;;;9.70;99.90;;;;;;5100827;28;20024;-78
2022/03/18 01:15:49;;;;;;;13.20;8.60;;;9.70;99.90;;;;;;5100565;28;20111;-78
2022/03/18 01:18:15;;;;;;;12.52;9.35;;;9.70;99.90;;;;;;5101071;28;20048;-78
2022/03/18 01:20:41;;;;;;;11.27;7.95;;;9.70;99.90;;;;;;5099262;28;20035;-78
2022/03/18 01:23:07;;;;;;;9.80;7.97;;;9.60;99.90;;;;;;5100767;28;20019;-79
2022/03/18 01:25:36;;;;;;;17.23;10.25;;;9.70;99.90;;;;;;5099321;28;20647;-78
2022/03/18 01:28:02;;;;;;;16.60;8.80;;;9.60;99.90;;;;;;5099404;28;20028;-79
2022/03/18 01:30:31;;;;;;;10.25;8.68;;;9.60;99.90;;;;;;5100103;28;20080;-79
2022/03/18 01:33:00;;;;;;;14.18;9.10;;;9.60;99.90;;;;;;5100560;28;20016;-79
2022/03/18 01:35:27;;;;;;;12.60;9.10;;;9.60;99.90;;;;;;5100428;28;20519;-79
2022/03/18 01:37:52;;;;;;;12.98;8.57;;;9.60;99.90;;;;;;5100503;28;20380;-78
2022/03/18 01:40:19;;;;;;;12.15;8.35;;;9.60;99.90;;;;;;5098837;28;20048;-80
2022/03/18 01:42:45;;;;;;;11.50;8.80;;;9.60;99.90;;;;;;5099009;28;20032;-79
2022/03/18 01:45:11;;;;;;;9.60;8.05;;;9.60;99.90;;;;;;5100191;28;20032;-79
2022/03/18 01:47:42;;;;;;;13.70;8.95;;;9.60;99.90;;;;;;5099958;28;20107;-79
2022/03/18 01:50:10;;;;;;;10.70;8.55;;;9.70;99.90;;;;;;5100036;28;20055;-79
2022/03/18 01:52:37;;;;;;;12.02;8.45;;;9.70;99.90;;;;;;5098307;28;20551;-79
2022/03/18 01:55:04;;;;;;;11.15;8.43;;;9.60;99.90;;;;;;5098767;28;20503;-78
2022/03/18 01:57:30;;;;;;;12.82;8.38;;;9.60;99.90;;;;;;5099763;28;20016;-79
2022/03/18 01:59:57;;;;;;;12.93;8.48;;;9.60;99.90;;;;;;5099921;28;20480;-78
2022/03/18 02:02:23;;;;;;;13.48;8.30;;;9.60;99.90;;;;;;5100018;28;20028;-79
2022/03/18 02:04:49;;;;;;;12.35;8.63;;;9.60;99.90;;;;;;5098505;28;20030;-78
2022/03/18 02:07:16;;;;;;;13.68;8.40;;;9.60;99.90;;;;;;5100216;28;20539;-78
2022/03/18 02:09:43;;;;;;;12.35;7.65;;;9.60;99.90;;;;;;5099627;28;20086;-78
2022/03/18 02:12:12;;;;;;;16.63;9.18;;;9.60;99.90;;;;;;5099788;28;20065;-79
2022/03/18 02:14:41;;;;;;;10.02;8.10;;;9.60;99.90;;;;;;5099520;28;20077;-78
2022/03/18 02:17:08;;;;;;;11.95;8.57;;;9.60;99.90;;;;;;5096272;28;20020;-79
2022/03/18 02:19:36;;;;;;;11.93;8.88;;;9.60;99.90;;;;;;5099400;28;20062;-77
2022/03/18 02:22:09;;;;;;;13.50;8.15;;;9.60;99.90;;;;;;5092995;28;20098;-78
2022/03/18 02:24:37;;;;;;;16.85;8.95;;;9.60;99.90;;;;;;5099448;28;20031;-77
2022/03/18 02:27:03;;;;;;;12.57;8.32;;;9.60;99.90;;;;;;5099375;28;20027;-77
2022/03/18 02:29:29;;;;;;;15.38;8.93;;;9.50;99.90;;;;;;5098053;28;20484;-78
2022/03/18 02:31:55;;;;;;;13.77;8.93;;;9.50;99.90;;;;;;5097719;28;20021;-77
2022/03/18 02:34:23;;;;;;;11.23;7.82;;;9.40;99.90;;;;;;5097917;28;20029;-77
2022/03/18 02:36:49;;;;;;;13.10;8.77;;;9.40;99.90;;;;;;5099186;28;20020;-78
2022/03/18 02:39:15;;;;;;;11.82;8.90;;;9.40;99.90;;;;;;5096812;28;20081;-78
2022/03/18 02:41:42;;;;;;;10.75;8.05;;;9.40;99.90;;;;;;5099044;28;20024;-78
2022/03/18 02:44:08;;;;;;;9.60;8.60;;;9.40;99.90;;;;;;5097933;28;20090;-78
2022/03/18 02:46:34;;;;;;;12.57;8.48;;;9.40;99.90;;;;;;5097638;28;20024;-78
2022/03/18 02:49:01;;;;;;;11.55;8.77;;;9.40;99.90;;;;;;5099370;28;20484;-78
2022/03/18 02:51:27;;;;;;;12.95;8.57;;;9.30;99.90;;;;;;5098937;28;20600;-77
2022/03/18 02:53:54;;;;;;;14.50;8.93;;;9.30;99.90;;;;;;5098981;28;20020;-78
2022/03/18 02:56:20;;;;;;;12.38;8.75;;;9.30;99.90;;;;;;5098979;28;20095;-78
2022/03/18 02:58:46;;;;;;;17.42;8.98;;;9.30;99.90;;;;;;5097709;28;20028;-79
2022/03/18 03:01:12;;;;;;;13.63;7.43;;;9.30;99.90;;;;;;5098622;28;20020;-79
2022/03/18 03:03:38;;;;;;;10.45;7.82;;;9.30;99.90;;;;;;5098775;28;20031;-78
2022/03/18 03:08:48;;;;;;;15.75;9.55;;;9.30;99.90;;;;;;5098716;28;20169;-78
2022/03/18 03:11:14;;;;;;;10.40;8.23;;;9.40;99.90;;;;;;5096423;28;20052;-78
2022/03/18 03:13:40;;;;;;;11.05;8.38;;;9.30;99.90;;;;;;5098580;28;20024;-78
2022/03/18 03:16:06;;;;;;;10.20;8.20;;;9.30;99.90;;;;;;5098206;28;20028;-78
2022/03/18 03:18:32;;;;;;;14.32;8.25;;;9.30;99.90;;;;;;5097456;28;20056;-78
2022/03/18 03:20:58;;;;;;;11.77;8.38;;;9.30;99.90;;;;;;5098560;28;20035;-78
2022/03/18 03:23:25;;;;;;;10.52;7.53;;;9.30;99.90;;;;;;5098304;28;20051;-78
2022/03/18 03:25:55;;;;;;;12.70;9.85;;;9.40;99.90;;;;;;5096989;28;20031;-79
2022/03/18 03:28:21;;;;;;;12.15;8.57;;;9.30;99.90;;;;;;5098227;28;20077;-78
2022/03/18 03:30:48;;;;;;;10.90;7.93;;;9.30;99.90;;;;;;5097334;28;20373;-78
2022/03/18 03:33:14;;;;;;;11.18;8.48;;;9.30;99.90;;;;;;5096885;28;20033;-78
2022/03/18 03:35:41;;;;;;;10.60;7.65;;;9.30;99.90;;;;;;5098335;28;20020;-78
2022/03/18 03:38:07;;;;;;;10.35;8.63;;;9.30;99.90;;;;;;5096877;28;20035;-78
2022/03/18 03:40:33;;;;;;;9.93;8.55;;;9.30;99.90;;;;;;5097866;28;20051;-78
2022/03/18 03:42:59;;;;;;;9.90;8.18;;;9.40;99.90;;;;;;5097874;28;20050;-78
2022/03/18 03:45:25;;;;;;;13.73;8.07;;;9.30;99.90;;;;;;5097645;28;20037;-78
2022/03/18 03:47:51;;;;;;;12.75;8.05;;;9.30;99.90;;;;;;5097992;28;20475;-78
2022/03/18 03:50:17;;;;;;;15.60;8.93;;;9.30;99.90;;;;;;5097862;28;20024;-77
2022/03/18 03:52:44;;;;;;;14.95;8.43;;;9.30;99.90;;;;;;5096710;28;20024;-78
2022/03/18 03:55:12;;;;;;;10.10;8.73;;;9.30;99.90;;;;;;5097777;28;20024;-77
2022/03/18 03:57:39;;;;;;;11.50;8.07;;;9.30;99.90;;;;;;5096263;28;20020;-77
2022/03/18 04:00:07;;;;;;;10.75;8.90;;;9.30;99.90;;;;;;5098103;28;20024;-78
2022/03/18 04:02:33;;;;;;;12.48;8.27;;;9.30;99.90;;;;;;5096267;28;20026;-78
2022/03/18 04:04:58;;;;;;;12.98;8.38;;;9.30;99.90;;;;;;5097762;28;20020;-78
2022/03/18 04:07:25;;;;;;;9.95;8.95;;;9.30;99.90;;;;;;5097876;28;20079;-78
2022/03/18 04:09:54;;;;;;;11.82;8.85;;;9.30;99.90;;;;;;5096244;28;20247;-77
2022/03/18 04:12:21;;;;;;;15.05;8.68;;;9.30;99.90;;;;;;5097580;28;20016;-77
2022/03/18 04:14:47;;;;;;;16.05;9.27;;;9.30;99.90;;;;;;5096266;28;20020;-77
2022/03/18 04:17:13;;;;;;;12.13;8.15;;;9.30;99.90;;;;;;5097165;28;20468;-78
2022/03/18 04:19:39;;;;;;;17.27;9.20;;;9.30;99.90;;;;;;5097513;28;20059;-78
2022/03/18 04:22:06;;;;;;;12.63;9.48;;;9.30;99.90;;;;;;5097442;28;20023;-78
2022/03/18 04:24:32;;;;;;;14.00;8.50;;;9.30;99.90;;;;;;5095324;28;20024;-77
2022/03/18 04:26:58;;;;;;;13.73;9.15;;;9.30;99.90;;;;;;5095928;28;20031;-78
2022/03/18 04:29:24;;;;;;;16.52;8.82;;;9.30;99.90;;;;;;5096273;28;20538;-77
2022/03/18 04:31:51;;;;;;;10.73;8.82;;;9.30;99.90;;;;;;5096794;28;20373;-77
2022/03/18 04:34:17;;;;;;;14.57;9.40;;;9.20;99.90;;;;;;5095847;28;20024;-78
2022/03/18 04:36:43;;;;;;;12.13;8.52;;;9.20;99.90;;;;;;5096017;28;20020;-77
2022/03/18 04:39:09;;;;;;;16.92;9.90;;;9.20;99.90;;;;;;5075613;28;20032;-78
2022/03/18 04:41:35;;;;;;;10.88;9.13;;;9.20;99.90;;;;;;5092545;28;20088;-77
2022/03/18 04:44:02;;;;;;;10.32;8.30;;;9.20;99.90;;;;;;5100279;28;20024;-77
2022/03/18 04:46:31;;;;;;;16.88;9.18;;;9.20;99.90;;;;;;5099700;28;20059;-78
2022/03/18 04:48:59;;;;;;;15.55;8.93;;;9.20;99.90;;;;;;5100043;28;20067;-78
2022/03/18 04:51:25;;;;;;;10.52;8.65;;;9.20;99.90;;;;;;5100041;28;20016;-78
2022/03/18 04:53:51;;;;;;;14.15;9.88;;;9.20;99.90;;;;;;5099975;28;20110;-77
2022/03/18 04:59:01;;;;;;;12.25;10.10;;;9.10;99.90;;;;;;5101228;28;20411;-78
2022/03/18 05:01:27;;;;;;;11.63;8.65;;;9.10;99.90;;;;;;5101018;28;20864;-78
2022/03/18 05:03:55;;;;;;;15.80;9.65;;;9.10;99.90;;;;;;5099776;28;20039;-78
2022/03/18 05:06:21;;;;;;;12.48;8.75;;;9.10;99.90;;;;;;5101289;28;20020;-78
2022/03/18 05:08:47;;;;;;;12.13;9.45;;;9.10;99.90;;;;;;5100890;28;20649;-79
2022/03/18 05:11:13;;;;;;;12.75;8.77;;;9.20;99.90;;;;;;5100912;28;20028;-78
2022/03/18 05:13:39;;;;;;;15.32;8.93;;;9.20;99.90;;;;;;5099736;28;20028;-78
2022/03/18 05:16:05;;;;;;;18.38;9.73;;;9.20;99.90;;;;;;5100459;28;20020;-79
2022/03/18 05:18:31;;;;;;;15.63;10.65;;;9.20;99.90;;;;;;5100876;28;20020;-79
2022/03/18 05:20:57;;;;;;;12.38;10.43;;;9.20;99.90;;;;;;5100643;28;20497;-78
2022/03/18 05:23:24;;;;;;;16.88;9.52;;;9.20;99.90;;;;;;5098619;28;20101;-78
2022/03/18 05:25:49;;;;;;;11.98;9.25;;;9.20;99.90;;;;;;5100651;28;20022;-79
2022/03/18 05:28:17;;;;;;;11.90;9.80;;;9.20;99.90;;;;;;5100535;28;20084;-78
2022/03/18 05:30:44;;;;;;;10.38;9.38;;;9.10;99.90;;;;;;5085283;28;20026;-78
2022/03/18 05:33:10;;;;;;;16.70;9.88;;;9.10;99.90;;;;;;5099458;28;20026;-78
2022/03/18 05:35:36;;;;;;;10.15;9.00;;;9.10;99.90;;;;;;5100386;28;20500;-78
2022/03/18 05:38:02;;;;;;;12.45;10.10;;;9.10;99.90;;;;;;5099191;28;20059;-79
2022/03/18 05:40:28;;;;;;;15.60;9.70;;;9.10;99.90;;;;;;5098935;28;20100;-78
2022/03/18 05:42:54;;;;;;;12.95;10.02;;;9.10;99.90;;;;;;5100166;28;20020;-78
2022/03/18 05:45:22;;;;;;;12.75;9.20;;;9.10;99.90;;;;;;5098470;28;20024;-79
2022/03/18 05:47:47;;;;;;;16.85;9.15;;;9.10;99.90;;;;;;5100134;28;20529;-79
2022/03/18 05:50:15;;;;;;;13.10;10.40;;;9.10;99.90;;;;;;5100136;28;20020;-78
2022/03/18 05:52:47;;;;;;;12.20;10.27;;;9.10;99.90;;;;;;5099538;28;20051;-78
2022/03/18 05:55:13;;;;;;;12.23;9.77;;;9.10;99.90;;;;;;5100226;28;20031;-78
2022/03/18 05:57:39;;;;;;;13.68;10.10;;;9.10;99.90;;;;;;5098834;28;20024;-78
2022/03/18 06:00:06;;;;;;;13.35;9.90;;;9.10;99.90;;;;;;5099019;28;20020;-78
2022/03/18 06:02:33;;;;;;;12.20;9.93;;;9.10;99.90;;;;;;5099605;28;20028;-78
2022/03/18 06:05:00;;;;;;;13.93;10.18;;;9.00;99.90;;;;;;5099018;28;20484;-78
2022/03/18 06:07:26;;;;;;;12.90;10.23;;;9.10;99.90;;;;;;5099919;28;20028;-78
2022/03/18 06:12:36;;;;;;;14.40;10.15;;;9.00;99.90;;;;;;5099669;28;20124;-78
2022/03/18 06:15:02;;;;;;;15.50;11.18;;;9.10;99.90;;;;;;5099776;28;20118;-78
2022/03/18 06:17:28;;;;;;;14.20;10.85;;;9.00;99.90;;;;;;5099337;28;20028;-78
2022/03/18 06:19:54;;;;;;;14.30;10.55;;;9.00;99.90;;;;;;5099531;28;20020;-78
2022/03/18 06:22:20;;;;;;;12.43;10.15;;;9.00;99.90;;;;;;5099458;28;20028;-78
2022/03/18 06:24:46;;;;;;;17.23;9.90;;;8.90;99.90;;;;;;5099352;28;20027;-78
2022/03/18 06:27:12;;;;;;;12.40;10.32;;;9.00;99.90;;;;;;5099307;28;20499;-78
2022/03/18 06:29:42;;;;;;;20.83;10.65;;;8.90;99.90;;;;;;5098048;28;20047;-78
2022/03/18 06:32:09;;;;;;;12.38;10.02;;;9.00;99.90;;;;;;5097791;28;20028;-78
2022/03/18 06:34:35;;;;;;;14.52;11.13;;;8.90;99.90;;;;;;5099318;28;20024;-78
2022/03/18 06:37:01;;;;;;;14.43;11.43;;;9.00;99.90;;;;;;5099274;28;20017;-78
2022/03/18 06:39:27;;;;;;;15.20;11.80;;;9.00;99.90;;;;;;5097691;28;20434;-78
2022/03/18 06:41:54;;;;;;;17.10;11.48;;;9.00;99.90;;;;;;5097729;28;20039;-78
2022/03/18 06:44:20;;;;;;;17.92;11.70;;;9.00;99.90;;;;;;5097889;28;20024;-78
2022/03/18 06:46:46;;;;;;;15.32;11.52;;;9.00;99.90;;;;;;5098815;28;20397;-78
2022/03/18 06:49:13;;;;;;;15.65;10.13;;;9.00;99.90;;;;;;5097684;28;20404;-78
2022/03/18 06:51:39;;;;;;;15.77;11.07;;;9.00;99.90;;;;;;5097725;28;20032;-78
2022/03/18 06:54:05;;;;;;;14.30;10.05;;;9.00;99.90;;;;;;5097872;28;20024;-78
2022/03/18 06:56:32;;;;;;;15.88;11.00;;;9.10;99.90;;;;;;5097932;28;20433;-78
2022/03/18 06:58:58;;;;;;;15.10;11.65;;;9.00;99.90;;;;;;5098971;28;20429;-78
2022/03/18 07:01:24;;;;;;;16.23;10.10;;;9.10;99.90;;;;;;5098578;28;20024;-78
2022/03/18 07:03:50;;;;;;;14.07;9.45;;;9.10;99.90;;;;;;5097378;28;20035;-78
2022/03/18 07:06:17;;;;;;;13.07;10.43;;;9.10;99.90;;;;;;5096586;28;20028;-78
2022/03/18 07:08:43;;;;;;;15.38;9.93;;;9.10;99.90;;;;;;5097274;28;20027;-78
2022/03/18 07:11:13;;;;;;;16.70;10.68;;;9.10;99.90;;;;;;5097565;28;20024;-78
2022/03/18 07:13:41;;;;;;;19.33;12.03;;;9.10;99.90;;;;;;5097246;28;20028;-78
2022/03/18 07:18:51;;;;;;;12.23;10.35;;;9.20;99.90;;;;;;5098765;28;20035;-77
2022/03/18 07:21:17;;;;;;;11.00;9.80;;;9.20;99.90;;;;;;5098415;28;20488;-78
2022/03/18 07:23:43;;;;;;;11.85;10.48;;;9.20;99.90;;;;;;5098388;28;20024;-78
2022/03/18 07:26:09;;;;;;;14.82;10.50;;;9.20;99.90;;;;;;5098461;28;20577;-78
2022/03/18 07:28:34;;;;;;;11.15;9.43;;;9.30;99.90;;;;;;5098078;28;20036;-77
2022/03/18 07:31:00;;;;;;;17.60;10.55;;;9.30;99.90;;;;;;5087982;28;20070;-78
2022/03/18 07:33:26;;;;;;;17.80;10.63;;;9.30;99.90;;;;;;5093174;28;20061;-78
2022/03/18 07:35:52;;;;;;;15.38;10.00;;;9.30;99.90;;;;;;5097055;28;20380;-78
2022/03/18 07:38:20;;;;;;;16.90;11.10;;;9.30;99.90;;;;;;5098200;28;20024;-78
2022/03/18 07:40:46;;;;;;;13.77;10.70;;;9.40;99.90;;;;;;5097924;28;20097;-78
2022/03/18 07:43:12;;;;;;;13.38;10.25;;;9.40;99.90;;;;;;5097954;28;20039;-78
2022/03/18 07:45:38;;;;;;;11.20;9.50;;;9.50;99.90;;;;;;5096572;28;20024;-78
2022/03/18 07:48:07;;;;;;;14.27;9.75;;;9.50;99.90;;;;;;5096230;28;20149;-77
2022/03/18 07:50:34;;;;;;;14.50;10.32;;;9.50;99.90;;;;;;5098373;28;20020;-76
2022/03/18 07:53:03;;;;;;;20.42;10.65;;;9.50;99.90;;;;;;5097872;28;20032;-77
2022/03/18 07:55:31;;;;;;;14.23;10.07;;;9.60;99.90;;;;;;5097988;28;20102;-77
2022/03/18 07:57:58;;;;;;;13.43;10.02;;;9.60;99.90;;;;;;5096543;28;20028;-77
2022/03/18 08:00:24;;;;;;;12.18;9.80;;;9.60;99.90;;;;;;5096453;28;20411;-77
2022/03/18 08:02:51;;;;;;;9.98;8.82;;;9.60;99.90;;;;;;5097450;28;20028;-77
2022/03/18 08:05:17;;;;;;;13.35;9.65;;;9.60;99.90;;;;;;5096448;28;20024;-77
2022/03/18 08:07:49;;;;;;;12.75;9.50;;;9.70;99.90;;;;;;5081235;28;20476;-78
2022/03/18 08:10:17;;;;;;;13.05;10.32;;;9.70;99.90;;;;;;5097713;28;20035;-77
2022/03/18 08:12:44;;;;;;;11.55;8.95;;;9.70;99.90;;;;;;5095225;28;20039;-77
2022/03/18 08:15:12;;;;;;;14.13;8.88;;;9.70;99.90;;;;;;5095196;28;20024;-77
2022/03/18 08:17:38;;;;;;;16.75;10.27;;;9.70;99.90;;;;;;5095636;28;20048;-77
2022/03/18 08:20:10;;;;;;;14.52;9.60;;;9.80;99.90;;;;;;5096777;28;20028;-77
2022/03/18 08:22:38;;;;;;;13.82;9.18;;;9.80;99.90;;;;;;5096767;28;20480;-77
2022/03/18 08:25:04;;;;;;;15.23;10.45;;;9.80;99.90;;;;;;5095727;28;20145;-77
2022/03/18 08:27:32;;;;;;;13.05;9.73;;;9.80;99.90;;;;;;5095374;28;20030;-77
2022/03/18 08:30:01;;;;;;;11.88;9.60;;;9.80;99.90;;;;;;5095481;28;20118;-77
2022/03/18 08:32:28;;;;;;;14.82;10.00;;;9.80;99.90;;;;;;5095373;28;20012;-77
2022/03/18 08:34:58;;;;;;;19.70;10.57;;;9.80;99.90;;;;;;5096586;28;20020;-77
2022/03/18 08:40:10;;;;;;;13.38;8.98;;;9.70;99.90;;;;;;5096653;28;20058;-77
2022/03/18 08:42:37;;;;;;;16.83;10.60;;;9.70;99.90;;;;;;5092787;28;20027;-78
2022/03/18 08:45:06;;;;;;;14.70;10.27;;;9.70;99.90;;;;;;5111104;28;20032;-77
2022/03/18 08:47:32;;;;;;;17.05;11.10;;;9.70;99.90;;;;;;5087403;28;20027;-77
2022/03/18 08:49:58;;;;;;;13.93;9.73;;;9.70;99.90;;;;;;5096997;28;20024;-77
2022/03/18 08:52:24;;;;;;;10.90;9.70;;;9.70;99.90;;;;;;5097156;28;20016;-77
2022/03/18 08:54:50;;;;;;;13.25;9.48;;;9.70;99.90;;;;;;5086890;28;20024;-77
2022/03/18 08:57:16;;;;;;;12.05;10.05;;;9.80;99.90;;;;;;5096666;28;20150;-77
2022/03/18 08:59:43;;;;;;;15.32;10.10;;;9.90;99.90;;;;;;5096610;28;20065;-77
2022/03/18 09:02:09;;;;;;;68.05;47.78;;;10.00;99.90;;;;;;5096843;28;20397;-77
2022/03/18 09:04:35;;;;;;;13.43;10.35;;;10.00;99.90;;;;;;5096956;28;20024;-77
2022/03/18 09:07:01;;;;;;;16.80;9.73;;;10.10;99.90;;;;;;5096929;28;20027;-77
2022/03/18 09:09:27;;;;;;;11.65;8.98;;;10.20;99.90;;;;;;5096764;28;20033;-77
2022/03/18 09:11:54;;;;;;;42.05;19.92;;;10.20;99.90;;;;;;5084730;28;20019;-78
2022/03/18 09:14:20;;;;;;;15.93;9.88;;;10.20;99.90;;;;;;5089821;28;20066;-78
2022/03/18 09:16:48;;;;;;;14.73;9.80;;;10.30;99.90;;;;;;5095540;28;20024;-77
2022/03/18 09:19:14;;;;;;;14.35;9.70;;;10.30;99.90;;;;;;5095492;28;20099;-77
2022/03/18 09:21:40;;;;;;;16.83;9.82;;;10.40;99.90;;;;;;5096762;28;20023;-77
2022/03/18 09:24:07;;;;;;;13.23;9.95;;;10.50;99.90;;;;;;5096716;28;20438;-77
2022/03/18 09:26:32;;;;;;;13.93;9.93;;;10.50;99.90;;;;;;5096785;28;20028;-77
2022/03/18 09:28:58;;;;;;;60.13;29.95;;;10.60;99.90;;;;;;5098725;28;20024;-77
2022/03/18 09:31:24;;;;;;;83.70;38.53;;;10.70;99.90;;;;;;5099983;28;20488;-77
2022/03/18 09:33:50;;;;;;;19.85;10.40;;;10.80;99.90;;;;;;5100158;28;20031;-77
2022/03/18 09:36:18;;;;;;;42.00;20.80;;;10.80;99.90;;;;;;5100361;28;20019;-78
2022/03/18 09:38:47;;;;;;;15.52;9.45;;;10.90;99.90;;;;;;5100351;28;20035;-77
2022/03/18 09:41:14;;;;;;;12.30;8.80;;;11.00;99.90;;;;;;5099915;28;20048;-77
2022/03/18 09:43:40;;;;;;;9.82;7.78;;;11.00;99.90;;;;;;5091554;28;20028;-77
2022/03/18 09:46:10;;;;;;;20.27;10.13;;;11.10;99.90;;;;;;5081161;28;20029;-77
2022/03/18 09:48:36;;;;;;;12.57;9.40;;;11.00;99.90;;;;;;5094240;28;20071;-76
2022/03/18 09:51:03;;;;;;;13.18;9.43;;;11.20;99.90;;;;;;5094270;28;20025;-77
2022/03/18 09:53:29;;;;;;;13.75;9.38;;;11.30;99.90;;;;;;5099199;28;20020;-77
2022/03/18 09:55:55;;;;;;;14.50;9.60;;;11.40;99.90;;;;;;5098835;28;20027;-76
2022/03/18 09:58:22;;;;;;;12.10;8.45;;;11.50;99.90;;;;;;5099454;28;20168;-77
2022/03/18 10:00:50;;;;;;;16.63;10.63;;;11.40;99.90;;;;;;5097969;28;20027;-77
2022/03/18 10:03:17;;;;;;;39.03;18.65;;;11.30;99.90;;;;;;5093026;28;20380;-77
2022/03/18 10:05:59;;;;;;;14.85;10.25;;;11.00;99.90;;;;;;5078566;28;20024;-77
2022/03/18 10:08:25;;;;;;;12.35;9.25;;;11.20;99.90;;;;;;5098360;28;20122;-77
2022/03/18 10:10:51;;;;;;;29.60;16.30;;;11.40;99.90;;;;;;5098157;28;20027;-77
2022/03/18 10:13:18;;;;;;;89.28;37.45;;;11.60;99.90;;;;;;5097471;28;20024;-76
2022/03/18 10:15:45;;;;;;;14.35;9.65;;;11.50;99.90;;;;;;5098149;28;20110;-76
2022/03/18 10:18:13;;;;;;;12.23;9.27;;;11.50;99.90;;;;;;5097831;28;20116;-77
2022/03/18 10:20:45;;;;;;;45.53;22.33;;;11.40;99.90;;;;;;5097835;28;20031;-77
2022/03/18 10:23:20;;;;;;;17.73;10.38;;;11.30;99.90;;;;;;5098081;28;20032;-77
2022/03/18 10:26:04;;;;;;;12.73;8.88;;;11.30;99.90;;;;;;5097937;28;20046;-77
2022/03/18 10:28:44;;;;;;;19.63;8.80;;;11.10;99.90;;;;;;5090905;28;20032;-77
2022/03/18 10:31:16;;;;;;;19.13;9.75;;;11.10;99.90;;;;;;5086785;28;20020;-77
2022/03/18 10:37:04;;;;;;;24.25;14.25;;;11.00;99.90;;;;;;5084367;28;20525;-77
2022/03/18 10:39:26;;;;;;;12.18;8.98;;;10.90;99.90;;;;;;5099021;28;20128;-77
2022/03/18 10:41:52;;;;;;;15.45;10.25;;;10.80;99.90;;;;;;5098223;28;20032;-77
2022/03/18 10:44:19;;;;;;;11.05;9.15;;;10.80;99.90;;;;;;5097275;28;20028;-77
2022/03/18 10:46:47;;;;;;;13.05;9.90;;;10.80;99.90;;;;;;5098466;28;20028;-77
2022/03/18 10:49:13;;;;;;;15.25;10.45;;;10.80;99.90;;;;;;5096878;28;20035;-78
2022/03/18 10:51:40;;;;;;;20.50;10.68;;;10.80;99.90;;;;;;5097537;28;20105;-77
2022/03/18 10:54:06;;;;;;;13.68;10.10;;;10.90;99.90;;;;;;5086076;28;20025;-77
2022/03/18 10:56:55;;;;;;;16.02;9.52;;;10.90;99.90;;;;;;5087878;28;20140;-77
2022/03/18 10:59:22;;;;;;;13.82;8.88;;;11.10;99.90;;;;;;5095414;28;20044;-77
2022/03/18 11:01:51;;;;;;;15.75;10.30;;;11.20;99.90;;;;;;5088669;28;20107;-77
2022/03/18 11:04:17;;;;;;;14.23;8.90;;;11.20;99.90;;;;;;5097058;28;20074;-77
2022/03/18 11:07:29;;;;;;;11.57;8.70;;;11.30;99.90;;;;;;5098242;28;20028;-77
2022/03/18 11:11:06;;;;;;;37.30;16.98;;;11.40;99.90;;;;;;5097790;28;20096;-77
2022/03/18 11:12:20;;;;;;;13.88;9.02;;;11.40;99.90;;;;;;5090289;28;20027;-77
2022/03/18 11:14:49;;;;;;;15.10;10.80;;;11.60;99.90;;;;;;5097186;28;20031;-77
2022/03/18 11:17:15;;;;;;;26.60;14.68;;;11.80;99.90;;;;;;5097885;28;20365;-77
2022/03/18 11:19:44;;;;;;;684.28;356.75;;;12.00;99.90;;;;;;5098381;28;20039;-77
2022/03/18 11:22:10;;;;;;;21.00;13.65;;;12.30;99.90;;;;;;5093378;28;20376;-77
2022/03/18 11:24:37;;;;;;;13.82;9.50;;;12.40;99.90;;;;;;5096772;28;20036;-77
2022/03/18 11:27:04;;;;;;;146.75;56.08;;;12.50;99.90;;;;;;5094631;28;20027;-77
2022/03/18 11:29:31;;;;;;;21.90;11.23;;;12.70;99.90;;;;;;5110824;28;20059;-77
2022/03/18 11:32:10;;;;;;;14.25;9.15;;;13.00;99.90;;;;;;5092436;28;20050;-77
2022/03/18 11:34:46;;;;;;;18.65;12.05;;;12.90;99.90;;;;;;5092332;28;20028;-77
2022/03/18 11:37:13;;;;;;;14.55;8.48;;;13.10;99.90;;;;;;5096651;28;20028;-77
2022/03/18 11:39:39;;;;;;;45.63;19.50;;;13.20;99.90;;;;;;5098096;28;20052;-77
2022/03/18 11:42:09;;;;;;;20.30;8.82;;;13.00;99.90;;;;;;5096548;28;20027;-77
2022/03/18 11:44:41;;;;;;;;;;;13.10;99.90;;;;;;5098475;28;20468;-77
2022/03/18 11:47:31;;;;;;;15.05;9.10;;;13.20;99.90;;;;;;5097856;28;19910;-77
2022/03/18 11:50:01;;;;;;;16.05;13.10;;;13.30;99.90;;;;;;5096642;28;20024;-77
2022/03/18 11:52:27;;;;;;;14.50;11.32;;;13.20;99.90;;;;;;5097434;28;20024;-77
2022/03/18 11:55:01;;;;;;;20.52;15.20;;;13.10;99.90;;;;;;5096483;28;20059;-77
2022/03/18 11:57:33;;;;;;;24.02;14.32;;;13.00;99.90;;;;;;5092212;28;20031;-77
2022/03/18 12:00:05;;;;;;;10.90;8.65;;;13.00;99.90;;;;;;5096387;28;20448;-77
2022/03/18 12:02:35;;;;;;;10.10;7.88;;;13.10;99.90;;;;;;5079208;28;20425;-77
2022/03/18 12:05:03;;;;;;;13.63;8.52;;;13.30;99.90;;;;;;5083284;28;20112;-77
2022/03/18 12:07:34;;;;;;;16.70;8.55;;;13.10;99.90;;;;;;5090947;28;20503;-78
2022/03/18 12:10:07;;;;;;;;;;;13.10;99.90;;;;;;5097545;28;20036;-77
2022/03/18 12:12:37;;;;;;;12.88;8.38;;;12.70;99.90;;;;;;5096852;28;19904;-77
2022/03/18 12:15:12;;;;;;;13.97;9.60;;;12.80;99.90;;;;;;5096905;28;20089;-77
2022/03/18 12:17:46;;;;;;;14.52;9.77;;;12.90;99.90;;;;;;5095557;28;20023;-77
2022/03/18 12:20:23;;;;;;;23.83;15.57;;;13.10;99.90;;;;;;5082451;28;20054;-77
2022/03/18 12:22:51;;;;;;;11.13;8.27;;;13.00;99.90;;;;;;5096180;28;20103;-77
2022/03/18 12:25:18;;;;;;;15.93;8.32;;;13.00;99.90;;;;;;5082686;28;20024;-77
2022/03/18 12:27:44;;;;;;;13.20;8.38;;;13.40;99.90;;;;;;5081970;28;20109;-77
2022/03/18 12:30:11;;;;;;;15.90;8.25;;;13.40;99.90;;;;;;5094833;28;20024;-77
2022/03/18 12:32:48;;;;;;;9.48;7.53;;;13.30;99.90;;;;;;5096681;28;20027;-77
2022/03/18 12:35:19;;;;;;;15.63;7.90;;;13.40;99.90;;;;;;5092379;28;20039;-76
2022/03/18 12:37:46;;;;;;;15.38;8.70;;;13.40;99.90;;;;;;5095299;28;20146;-76
2022/03/18 12:40:14;;;;;;;16.00;8.18;;;13.40;99.90;;;;;;5096388;28;20138;-77
2022/03/18 12:42:50;;;;;;;16.05;7.47;;;13.60;99.90;;;;;;5096416;28;20028;-77
2022/03/18 12:45:34;;;;;;;11.52;8.60;;;13.50;99.90;;;;;;5096434;28;20020;-77
2022/03/18 12:48:02;;;;;;;9.30;8.20;;;13.50;99.90;;;;;;5096341;28;20107;-77
2022/03/18 12:50:33;;;;;;;11.93;8.35;;;13.40;99.90;;;;;;5096199;28;20012;-77
2022/03/18 12:53:00;;;;;;;12.60;7.60;;;13.50;99.90;;;;;;5095085;28;20030;-77
2022/03/18 12:55:26;;;;;;;15.10;7.45;;;13.70;99.90;;;;;;5091917;28;20090;-77
2022/03/18 12:57:53;;;;;;;15.45;9.05;;;13.90;99.90;;;;;;5085542;28;20071;-77
2022/03/18 13:00:21;;;;;;;10.25;8.07;;;14.00;99.90;;;;;;5096431;28;20492;-77
2022/03/18 13:02:51;;;;;;;15.32;8.20;;;13.90;99.90;;;;;;5078575;28;20088;-78
2022/03/18 13:05:20;;;;;;;13.67;7.43;;;13.90;99.90;;;;;;5093781;28;20023;-77